North Natick, Massachusetts
Current Conditions -  °F | °C
As of 6:53 AM on Sunday 23 Nov 2014 (Local Time) from KOWD Reporting Station
Clear Clear  
Wind Chill:   Ceiling: Unl
Heat Index:   Visibility: 10mi
Dew Point: -4°   Wind: 6mph
Humidity: 49%   Direction: 210°SSW
Pressure: 30.11"   Gusts: NA
Location:  42.2868°N, 71.3531°W
Report Text: KOWD 231153Z 21005KT 10SM CLR 06/M04 A3011 RMK AO2 SLP197 60000 T00561044 10072 20050 53009
Loading
Personal Weather Stations






























Interactive Weather Map New forecast layout! Learn more

10-Day Weather Forecast

Advertisements
Track Severe Weather on mobile